sensor_id;sensor_type;location;lat;lon;timestamp;temperature;humidity
17815;DHT22;9031;50.974;11.330;2024-03-02T00:01:05;5.60;99.90
17815;DHT22;9031;50.974;11.330;2024-03-02T00:03:32;5.60;99.90
17815;DHT22;9031;50.974;11.330;2024-03-02T00:05:57;5.70;99.90
17815;DHT22;9031;50.974;11.330;2024-03-02T00:08:24;5.80;99.90
17815;DHT22;9031;50.974;11.330;2024-03-02T00:10:51;5.80;99.90
17815;DHT22;9031;50.974;11.330;2024-03-02T00:13:16;5.80;99.90
17815;DHT22;9031;50.974;11.330;2024-03-02T00:15:54;5.80;99.90
17815;DHT22;9031;50.974;11.330;2024-03-02T00:18:34;5.70;99.90
17815;DHT22;9031;50.974;11.330;2024-03-02T00:21:00;5.60;99.90
17815;DHT22;9031;50.974;11.330;2024-03-02T00:23:32;5.50;99.90
17815;DHT22;9031;50.974;11.330;2024-03-02T00:25:59;5.40;99.90
17815;DHT22;9031;50.974;11.330;2024-03-02T00:28:31;5.50;99.90
17815;DHT22;9031;50.974;11.330;2024-03-02T00:31:03;5.30;99.90
17815;DHT22;9031;50.974;11.330;2024-03-02T00:33:37;5.10;99.90
17815;DHT22;9031;50.974;11.330;2024-03-02T00:36:06;5.30;99.90
17815;DHT22;9031;50.974;11.330;2024-03-02T00:38:32;5.20;99.90
17815;DHT22;9031;50.974;11.330;2024-03-02T00:41:00;5.20;99.90
17815;DHT22;9031;50.974;11.330;2024-03-02T00:44:00;5.40;99.90
17815;DHT22;9031;50.974;11.330;2024-03-02T00:46:28;5.50;99.90
17815;DHT22;9031;50.974;11.330;2024-03-02T00:48:57;5.60;99.90
17815;DHT22;9031;50.974;11.330;2024-03-02T00:51:25;5.40;99.90
17815;DHT22;9031;50.974;11.330;2024-03-02T00:53:54;5.30;99.90
17815;DHT22;9031;50.974;11.330;2024-03-02T00:56:24;5.40;99.90
17815;DHT22;9031;50.974;11.330;2024-03-02T00:58:50;5.40;99.90
17815;DHT22;9031;50.974;11.330;2024-03-02T01:01:16;5.60;99.90
17815;DHT22;9031;50.974;11.330;2024-03-02T01:03:42;5.70;99.90
17815;DHT22;9031;50.974;11.330;2024-03-02T01:06:08;5.80;99.90
17815;DHT22;9031;50.974;11.330;2024-03-02T01:08:37;5.70;99.90
17815;DHT22;9031;50.974;11.330;2024-03-02T01:11:03;5.50;99.90
17815;DHT22;9031;50.974;11.330;2024-03-02T01:13:29;5.60;99.90
17815;DHT22;9031;50.974;11.330;2024-03-02T01:15:55;5.60;99.90
17815;DHT22;9031;50.974;11.330;2024-03-02T01:18:21;5.70;99.90
17815;DHT22;9031;50.974;11.330;2024-03-02T01:20:47;5.80;99.90
17815;DHT22;9031;50.974;11.330;2024-03-02T01:23:13;5.80;99.90
17815;DHT22;9031;50.974;11.330;2024-03-02T01:25:38;5.70;99.90
17815;DHT22;9031;50.974;11.330;2024-03-02T01:28:04;5.70;99.90
17815;DHT22;9031;50.974;11.330;2024-03-02T01:30:30;5.70;99.90
17815;DHT22;9031;50.974;11.330;2024-03-02T01:32:56;5.70;99.90
17815;DHT22;9031;50.974;11.330;2024-03-02T01:35:21;5.60;99.90
17815;DHT22;9031;50.974;11.330;2024-03-02T01:37:47;5.70;99.90
17815;DHT22;9031;50.974;11.330;2024-03-02T01:40:12;5.70;99.90
17815;DHT22;9031;50.974;11.330;2024-03-02T01:42:38;5.80;99.90
17815;DHT22;9031;50.974;11.330;2024-03-02T01:45:05;5.80;99.90
17815;DHT22;9031;50.974;11.330;2024-03-02T01:47:31;5.90;99.90
17815;DHT22;9031;50.974;11.330;2024-03-02T01:49:57;5.90;99.90
17815;DHT22;9031;50.974;11.330;2024-03-02T01:52:23;5.90;99.90
17815;DHT22;9031;50.974;11.330;2024-03-02T01:54:49;5.80;99.90
17815;DHT22;9031;50.974;11.330;2024-03-02T01:57:14;5.70;99.90
17815;DHT22;9031;50.974;11.330;2024-03-02T01:59:40;5.80;99.90
17815;DHT22;9031;50.974;11.330;2024-03-02T02:02:05;5.70;99.90
17815;DHT22;9031;50.974;11.330;2024-03-02T02:04:31;5.70;99.90
17815;DHT22;9031;50.974;11.330;2024-03-02T02:06:58;5.70;99.90
17815;DHT22;9031;50.974;11.330;2024-03-02T02:09:23;5.80;99.90
17815;DHT22;9031;50.974;11.330;2024-03-02T02:11:50;5.80;99.90
17815;DHT22;9031;50.974;11.330;2024-03-02T02:14:16;5.90;99.90
17815;DHT22;9031;50.974;11.330;2024-03-02T02:16:41;5.90;99.90
17815;DHT22;9031;50.974;11.330;2024-03-02T02:19:07;6.00;99.90
17815;DHT22;9031;50.974;11.330;2024-03-02T02:21:33;6.10;99.90
17815;DHT22;9031;50.974;11.330;2024-03-02T02:23:58;6.20;99.90
17815;DHT22;9031;50.974;11.330;2024-03-02T02:26:24;6.30;99.90
17815;DHT22;9031;50.974;11.330;2024-03-02T02:28:50;6.20;99.90
17815;DHT22;9031;50.974;11.330;2024-03-02T02:31:15;6.10;99.90
17815;DHT22;9031;50.974;11.330;2024-03-02T02:33:42;6.00;99.90
17815;DHT22;9031;50.974;11.330;2024-03-02T02:36:07;5.90;99.90
17815;DHT22;9031;50.974;11.330;2024-03-02T02:38:35;5.90;99.90
17815;DHT22;9031;50.974;11.330;2024-03-02T02:41:02;5.70;99.90
17815;DHT22;9031;50.974;11.330;2024-03-02T02:43:27;5.80;99.90
17815;DHT22;9031;50.974;11.330;2024-03-02T02:45:53;5.70;99.90
17815;DHT22;9031;50.974;11.330;2024-03-02T02:48:18;5.80;99.90
17815;DHT22;9031;50.974;11.330;2024-03-02T02:50:43;5.40;99.90
17815;DHT22;9031;50.974;11.330;2024-03-02T02:53:09;5.10;99.90
17815;DHT22;9031;50.974;11.330;2024-03-02T02:55:35;4.80;99.90
17815;DHT22;9031;50.974;11.330;2024-03-02T02:58:06;4.80;99.90
17815;DHT22;9031;50.974;11.330;2024-03-02T03:00:31;4.80;99.90
17815;DHT22;9031;50.974;11.330;2024-03-02T03:02:57;4.70;99.90
17815;DHT22;9031;50.974;11.330;2024-03-02T03:05:22;4.50;99.90
17815;DHT22;9031;50.974;11.330;2024-03-02T03:07:48;4.50;99.90
17815;DHT22;9031;50.974;11.330;2024-03-02T03:10:16;4.50;99.90
17815;DHT22;9031;50.974;11.330;2024-03-02T03:12:42;4.50;99.90
17815;DHT22;9031;50.974;11.330;2024-03-02T03:15:09;4.50;99.90
17815;DHT22;9031;50.974;11.330;2024-03-02T03:17:35;4.40;99.90
17815;DHT22;9031;50.974;11.330;2024-03-02T03:20:01;4.50;99.90
17815;DHT22;9031;50.974;11.330;2024-03-02T03:22:27;4.60;99.90
17815;DHT22;9031;50.974;11.330;2024-03-02T03:24:52;4.60;99.90
17815;DHT22;9031;50.974;11.330;2024-03-02T03:27:18;4.50;99.90
17815;DHT22;9031;50.974;11.330;2024-03-02T03:29:45;4.60;99.90
17815;DHT22;9031;50.974;11.330;2024-03-02T03:32:10;4.70;99.90
17815;DHT22;9031;50.974;11.330;2024-03-02T03:34:36;4.90;99.90
17815;DHT22;9031;50.974;11.330;2024-03-02T03:37:02;5.20;99.90
17815;DHT22;9031;50.974;11.330;2024-03-02T03:39:27;5.40;99.90
17815;DHT22;9031;50.974;11.330;2024-03-02T03:41:53;5.70;99.90
17815;DHT22;9031;50.974;11.330;2024-03-02T03:44:19;5.60;99.90
17815;DHT22;9031;50.974;11.330;2024-03-02T03:46:44;5.20;99.90
17815;DHT22;9031;50.974;11.330;2024-03-02T03:49:10;4.90;99.90
17815;DHT22;9031;50.974;11.330;2024-03-02T03:51:35;4.80;99.90
17815;DHT22;9031;50.974;11.330;2024-03-02T03:54:01;4.90;99.90
17815;DHT22;9031;50.974;11.330;2024-03-02T03:56:26;5.10;99.90
17815;DHT22;9031;50.974;11.330;2024-03-02T03:58:52;5.40;99.90
17815;DHT22;9031;50.974;11.330;2024-03-02T04:01:18;5.60;99.90
17815;DHT22;9031;50.974;11.330;2024-03-02T04:03:43;5.70;99.90
17815;DHT22;9031;50.974;11.330;2024-03-02T04:06:09;5.70;99.90
17815;DHT22;9031;50.974;11.330;2024-03-02T04:08:34;5.70;99.90
17815;DHT22;9031;50.974;11.330;2024-03-02T04:10:59;5.70;99.90
17815;DHT22;9031;50.974;11.330;2024-03-02T04:13:25;5.70;99.90
17815;DHT22;9031;50.974;11.330;2024-03-02T04:15:50;5.80;99.90
17815;DHT22;9031;50.974;11.330;2024-03-02T04:18:16;5.90;99.90
17815;DHT22;9031;50.974;11.330;2024-03-02T04:20:42;6.10;99.90
17815;DHT22;9031;50.974;11.330;2024-03-02T04:23:07;6.20;99.90
17815;DHT22;9031;50.974;11.330;2024-03-02T04:25:33;6.30;99.90
17815;DHT22;9031;50.974;11.330;2024-03-02T04:27:58;6.30;99.90
17815;DHT22;9031;50.974;11.330;2024-03-02T04:30:24;6.20;99.90
17815;DHT22;9031;50.974;11.330;2024-03-02T04:32:50;6.10;99.90
17815;DHT22;9031;50.974;11.330;2024-03-02T04:35:16;6.10;99.90
17815;DHT22;9031;50.974;11.330;2024-03-02T04:37:41;6.10;99.90
17815;DHT22;9031;50.974;11.330;2024-03-02T04:40:08;6.20;99.90
17815;DHT22;9031;50.974;11.330;2024-03-02T04:42:34;6.00;99.90
17815;DHT22;9031;50.974;11.330;2024-03-02T04:45:00;6.00;99.90
17815;DHT22;9031;50.974;11.330;2024-03-02T04:47:25;5.80;99.90
17815;DHT22;9031;50.974;11.330;2024-03-02T04:49:51;5.70;99.90
17815;DHT22;9031;50.974;11.330;2024-03-02T04:52:16;5.80;99.90
17815;DHT22;9031;50.974;11.330;2024-03-02T04:54:42;5.90;99.90
17815;DHT22;9031;50.974;11.330;2024-03-02T04:57:26;6.00;99.90
17815;DHT22;9031;50.974;11.330;2024-03-02T04:59:52;6.10;99.90
17815;DHT22;9031;50.974;11.330;2024-03-02T05:02:17;6.10;99.90
17815;DHT22;9031;50.974;11.330;2024-03-02T05:04:42;6.10;99.90
17815;DHT22;9031;50.974;11.330;2024-03-02T05:07:08;6.20;99.90
17815;DHT22;9031;50.974;11.330;2024-03-02T05:09:33;6.20;99.90
17815;DHT22;9031;50.974;11.330;2024-03-02T05:11:59;6.10;99.90
17815;DHT22;9031;50.974;11.330;2024-03-02T05:14:42;6.00;99.90
17815;DHT22;9031;50.974;11.330;2024-03-02T05:17:08;6.00;99.90
17815;DHT22;9031;50.974;11.330;2024-03-02T05:19:33;6.00;99.90
17815;DHT22;9031;50.974;11.330;2024-03-02T05:21:58;6.00;99.90
17815;DHT22;9031;50.974;11.330;2024-03-02T05:24:24;6.10;99.90
17815;DHT22;9031;50.974;11.330;2024-03-02T05:26:52;5.80;99.90
17815;DHT22;9031;50.974;11.330;2024-03-02T05:29:18;6.00;99.90
17815;DHT22;9031;50.974;11.330;2024-03-02T05:31:44;6.00;99.90
17815;DHT22;9031;50.974;11.330;2024-03-02T05:34:09;6.10;99.90
17815;DHT22;9031;50.974;11.330;2024-03-02T05:36:35;6.10;99.90
17815;DHT22;9031;50.974;11.330;2024-03-02T05:39:00;6.10;99.90
17815;DHT22;9031;50.974;11.330;2024-03-02T05:41:26;6.20;99.90
17815;DHT22;9031;50.974;11.330;2024-03-02T05:43:52;6.20;99.90
17815;DHT22;9031;50.974;11.330;2024-03-02T05:46:17;6.30;99.90
17815;DHT22;9031;50.974;11.330;2024-03-02T05:48:43;6.40;99.90
17815;DHT22;9031;50.974;11.330;2024-03-02T05:51:08;6.50;99.90
17815;DHT22;9031;50.974;11.330;2024-03-02T05:53:34;6.30;99.90
17815;DHT22;9031;50.974;11.330;2024-03-02T05:55:59;6.30;99.90
17815;DHT22;9031;50.974;11.330;2024-03-02T05:58:25;6.30;99.90
17815;DHT22;9031;50.974;11.330;2024-03-02T06:01:08;6.40;99.90
17815;DHT22;9031;50.974;11.330;2024-03-02T06:03:34;6.40;99.90
17815;DHT22;9031;50.974;11.330;2024-03-02T06:05:59;6.40;99.90
17815;DHT22;9031;50.974;11.330;2024-03-02T06:08:25;6.50;99.90
17815;DHT22;9031;50.974;11.330;2024-03-02T06:10:50;6.60;99.90
17815;DHT22;9031;50.974;11.330;2024-03-02T06:13:16;6.60;99.90
17815;DHT22;9031;50.974;11.330;2024-03-02T06:15:41;6.60;99.90
17815;DHT22;9031;50.974;11.330;2024-03-02T06:18:07;6.60;99.90
17815;DHT22;9031;50.974;11.330;2024-03-02T06:20:33;6.50;99.90
17815;DHT22;9031;50.974;11.330;2024-03-02T06:22:59;6.60;99.90
17815;DHT22;9031;50.974;11.330;2024-03-02T06:25:24;6.40;99.90
17815;DHT22;9031;50.974;11.330;2024-03-02T06:27:50;6.20;99.90
17815;DHT22;9031;50.974;11.330;2024-03-02T06:30:15;6.30;99.90
17815;DHT22;9031;50.974;11.330;2024-03-02T06:32:41;6.40;99.90
17815;DHT22;9031;50.974;11.330;2024-03-02T06:35:06;6.50;99.90
17815;DHT22;9031;50.974;11.330;2024-03-02T06:37:35;6.60;99.90
17815;DHT22;9031;50.974;11.330;2024-03-02T06:40:01;6.60;99.90
17815;DHT22;9031;50.974;11.330;2024-03-02T06:42:27;6.70;99.90
17815;DHT22;9031;50.974;11.330;2024-03-02T06:44:58;6.80;99.90
17815;DHT22;9031;50.974;11.330;2024-03-02T06:47:23;6.90;99.90
17815;DHT22;9031;50.974;11.330;2024-03-02T06:49:49;7.00;99.90
17815;DHT22;9031;50.974;11.330;2024-03-02T06:52:14;6.90;99.90
17815;DHT22;9031;50.974;11.330;2024-03-02T06:54:40;6.90;99.90
17815;DHT22;9031;50.974;11.330;2024-03-02T06:57:05;7.00;99.90
17815;DHT22;9031;50.974;11.330;2024-03-02T06:59:31;7.10;99.90
17815;DHT22;9031;50.974;11.330;2024-03-02T07:01:56;7.10;99.90
17815;DHT22;9031;50.974;11.330;2024-03-02T07:04:22;7.10;99.90
17815;DHT22;9031;50.974;11.330;2024-03-02T07:06:47;7.10;99.90
17815;DHT22;9031;50.974;11.330;2024-03-02T07:09:13;7.20;99.90
17815;DHT22;9031;50.974;11.330;2024-03-02T07:11:38;7.40;99.90
17815;DHT22;9031;50.974;11.330;2024-03-02T07:14:04;7.50;99.90
17815;DHT22;9031;50.974;11.330;2024-03-02T07:16:29;7.50;99.90
17815;DHT22;9031;50.974;11.330;2024-03-02T07:18:58;7.50;99.90
17815;DHT22;9031;50.974;11.330;2024-03-02T07:21:24;7.50;99.90
17815;DHT22;9031;50.974;11.330;2024-03-02T07:23:50;7.70;99.90
17815;DHT22;9031;50.974;11.330;2024-03-02T07:26:16;7.80;99.90
17815;DHT22;9031;50.974;11.330;2024-03-02T07:28:43;8.00;99.90
17815;DHT22;9031;50.974;11.330;2024-03-02T07:31:09;8.20;99.90
17815;DHT22;9031;50.974;11.330;2024-03-02T07:33:35;8.30;99.90
17815;DHT22;9031;50.974;11.330;2024-03-02T07:36:00;8.40;99.90
17815;DHT22;9031;50.974;11.330;2024-03-02T07:38:28;8.50;99.90
17815;DHT22;9031;50.974;11.330;2024-03-02T07:40:54;8.60;99.90
17815;DHT22;9031;50.974;11.330;2024-03-02T07:43:20;8.80;99.90
17815;DHT22;9031;50.974;11.330;2024-03-02T07:45:48;8.90;99.90
17815;DHT22;9031;50.974;11.330;2024-03-02T07:48:14;9.20;99.90
17815;DHT22;9031;50.974;11.330;2024-03-02T07:50:40;9.40;99.90
17815;DHT22;9031;50.974;11.330;2024-03-02T07:53:06;9.30;99.90
17815;DHT22;9031;50.974;11.330;2024-03-02T07:55:33;9.40;99.90
17815;DHT22;9031;50.974;11.330;2024-03-02T07:57:58;9.30;99.90
17815;DHT22;9031;50.974;11.330;2024-03-02T08:00:24;9.50;99.90
17815;DHT22;9031;50.974;11.330;2024-03-02T08:02:51;9.70;99.90
17815;DHT22;9031;50.974;11.330;2024-03-02T08:05:17;9.90;99.90
17815;DHT22;9031;50.974;11.330;2024-03-02T08:07:44;10.10;99.90
17815;DHT22;9031;50.974;11.330;2024-03-02T08:10:10;10.40;99.90
17815;DHT22;9031;50.974;11.330;2024-03-02T08:12:36;10.30;99.90
17815;DHT22;9031;50.974;11.330;2024-03-02T08:15:01;10.40;99.90
17815;DHT22;9031;50.974;11.330;2024-03-02T08:17:27;10.40;99.90
17815;DHT22;9031;50.974;11.330;2024-03-02T08:19:53;10.40;99.90
17815;DHT22;9031;50.974;11.330;2024-03-02T08:22:18;10.60;99.90
17815;DHT22;9031;50.974;11.330;2024-03-02T08:24:44;10.80;99.90
17815;DHT22;9031;50.974;11.330;2024-03-02T08:27:10;11.00;99.90
17815;DHT22;9031;50.974;11.330;2024-03-02T08:29:35;11.30;99.90
17815;DHT22;9031;50.974;11.330;2024-03-02T08:32:01;11.60;99.90
17815;DHT22;9031;50.974;11.330;2024-03-02T08:34:26;11.70;99.90
17815;DHT22;9031;50.974;11.330;2024-03-02T08:36:52;11.40;99.90
17815;DHT22;9031;50.974;11.330;2024-03-02T08:39:18;11.00;99.90
17815;DHT22;9031;50.974;11.330;2024-03-02T08:41:45;11.40;99.90
17815;DHT22;9031;50.974;11.330;2024-03-02T08:44:11;11.60;99.90
17815;DHT22;9031;50.974;11.330;2024-03-02T08:46:37;11.60;99.90
17815;DHT22;9031;50.974;11.330;2024-03-02T08:49:03;11.70;99.90
17815;DHT22;9031;50.974;11.330;2024-03-02T08:51:29;11.70;99.90
17815;DHT22;9031;50.974;11.330;2024-03-02T08:53:54;11.90;99.90
17815;DHT22;9031;50.974;11.330;2024-03-02T08:56:20;11.70;99.90
17815;DHT22;9031;50.974;11.330;2024-03-02T08:58:47;11.60;99.90
17815;DHT22;9031;50.974;11.330;2024-03-02T09:01:12;11.40;99.90
17815;DHT22;9031;50.974;11.330;2024-03-02T09:03:38;11.60;99.90
17815;DHT22;9031;50.974;11.330;2024-03-02T09:06:04;11.60;99.90
17815;DHT22;9031;50.974;11.330;2024-03-02T09:08:29;11.80;99.90
17815;DHT22;9031;50.974;11.330;2024-03-02T09:10:55;12.10;99.90
17815;DHT22;9031;50.974;11.330;2024-03-02T09:13:21;12.00;99.90
17815;DHT22;9031;50.974;11.330;2024-03-02T09:15:47;11.90;99.90
17815;DHT22;9031;50.974;11.330;2024-03-02T09:18:13;12.00;99.90
17815;DHT22;9031;50.974;11.330;2024-03-02T09:20:39;11.90;99.90
17815;DHT22;9031;50.974;11.330;2024-03-02T09:23:04;11.90;99.90
17815;DHT22;9031;50.974;11.330;2024-03-02T09:25:29;11.70;99.90
17815;DHT22;9031;50.974;11.330;2024-03-02T09:27:55;11.60;99.90
17815;DHT22;9031;50.974;11.330;2024-03-02T09:30:20;11.70;99.90
17815;DHT22;9031;50.974;11.330;2024-03-02T09:32:46;11.60;99.90
17815;DHT22;9031;50.974;11.330;2024-03-02T09:35:11;11.70;99.90
17815;DHT22;9031;50.974;11.330;2024-03-02T09:37:37;11.80;99.90
17815;DHT22;9031;50.974;11.330;2024-03-02T09:40:03;11.90;99.90
17815;DHT22;9031;50.974;11.330;2024-03-02T09:42:29;12.30;99.90
17815;DHT22;9031;50.974;11.330;2024-03-02T09:44:55;12.50;99.90
17815;DHT22;9031;50.974;11.330;2024-03-02T09:47:20;12.70;99.90
17815;DHT22;9031;50.974;11.330;2024-03-02T09:49:46;12.80;99.90
17815;DHT22;9031;50.974;11.330;2024-03-02T09:52:13;12.70;99.90
17815;DHT22;9031;50.974;11.330;2024-03-02T09:54:39;13.00;99.90
17815;DHT22;9031;50.974;11.330;2024-03-02T09:57:05;13.50;99.90
17815;DHT22;9031;50.974;11.330;2024-03-02T09:59:31;13.90;99.90
17815;DHT22;9031;50.974;11.330;2024-03-02T10:02:00;13.40;99.90
17815;DHT22;9031;50.974;11.330;2024-03-02T10:04:27;13.40;99.90
17815;DHT22;9031;50.974;11.330;2024-03-02T10:07:15;13.70;99.90
17815;DHT22;9031;50.974;11.330;2024-03-02T10:09:42;13.50;99.90
17815;DHT22;9031;50.974;11.330;2024-03-02T10:12:09;12.90;99.90
17815;DHT22;9031;50.974;11.330;2024-03-02T10:14:35;12.70;99.90
17815;DHT22;9031;50.974;11.330;2024-03-02T10:17:06;12.10;99.90
17815;DHT22;9031;50.974;11.330;2024-03-02T10:19:33;12.10;99.90
17815;DHT22;9031;50.974;11.330;2024-03-02T10:22:01;12.40;99.90
17815;DHT22;9031;50.974;11.330;2024-03-02T10:24:32;12.30;99.90
17815;DHT22;9031;50.974;11.330;2024-03-02T10:26:59;12.30;99.90
17815;DHT22;9031;50.974;11.330;2024-03-02T10:29:25;12.70;99.90
17815;DHT22;9031;50.974;11.330;2024-03-02T10:31:54;13.00;99.90
17815;DHT22;9031;50.974;11.330;2024-03-02T10:34:19;13.20;99.90
17815;DHT22;9031;50.974;11.330;2024-03-02T10:36:47;13.60;99.90
17815;DHT22;9031;50.974;11.330;2024-03-02T10:39:13;13.60;99.90
17815;DHT22;9031;50.974;11.330;2024-03-02T10:41:39;13.10;99.90
17815;DHT22;9031;50.974;11.330;2024-03-02T10:44:07;12.50;99.90
17815;DHT22;9031;50.974;11.330;2024-03-02T10:46:34;13.00;99.90
17815;DHT22;9031;50.974;11.330;2024-03-02T10:49:01;12.80;99.90
17815;DHT22;9031;50.974;11.330;2024-03-02T10:51:28;12.50;99.90
17815;DHT22;9031;50.974;11.330;2024-03-02T10:54:00;12.90;99.90
17815;DHT22;9031;50.974;11.330;2024-03-02T10:56:48;13.50;99.90
17815;DHT22;9031;50.974;11.330;2024-03-02T10:59:32;13.80;99.90
17815;DHT22;9031;50.974;11.330;2024-03-02T11:02:00;13.40;99.90
17815;DHT22;9031;50.974;11.330;2024-03-02T11:04:27;13.10;99.90
17815;DHT22;9031;50.974;11.330;2024-03-02T11:07:00;13.40;99.90
17815;DHT22;9031;50.974;11.330;2024-03-02T11:09:27;13.60;99.90
17815;DHT22;9031;50.974;11.330;2024-03-02T11:14:24;14.40;99.90
17815;DHT22;9031;50.974;11.330;2024-03-02T11:16:51;13.30;99.90
17815;DHT22;9031;50.974;11.330;2024-03-02T11:19:17;13.10;99.90
17815;DHT22;9031;50.974;11.330;2024-03-02T11:21:43;13.00;99.90
17815;DHT22;9031;50.974;11.330;2024-03-02T11:26:49;15.10;99.90
17815;DHT22;9031;50.974;11.330;2024-03-02T11:32:01;16.30;99.90
17815;DHT22;9031;50.974;11.330;2024-03-02T11:34:31;17.40;99.90
17815;DHT22;9031;50.974;11.330;2024-03-02T11:36:57;18.60;99.90
17815;DHT22;9031;50.974;11.330;2024-03-02T11:39:25;19.10;99.90
17815;DHT22;9031;50.974;11.330;2024-03-02T11:41:50;19.00;99.90
17815;DHT22;9031;50.974;11.330;2024-03-02T11:44:16;19.60;99.90
17815;DHT22;9031;50.974;11.330;2024-03-02T11:46:41;19.90;99.90
17815;DHT22;9031;50.974;11.330;2024-03-02T11:49:14;20.40;99.90
17815;DHT22;9031;50.974;11.330;2024-03-02T11:51:53;20.20;99.90
17815;DHT22;9031;50.974;11.330;2024-03-02T11:54:25;20.90;99.90
17815;DHT22;9031;50.974;11.330;2024-03-02T11:56:53;21.00;99.30
17815;DHT22;9031;50.974;11.330;2024-03-02T11:59:20;21.20;98.20
17815;DHT22;9031;50.974;11.330;2024-03-02T12:01:47;21.30;97.80
17815;DHT22;9031;50.974;11.330;2024-03-02T12:04:13;18.50;99.90
17815;DHT22;9031;50.974;11.330;2024-03-02T12:06:38;18.70;99.90
17815;DHT22;9031;50.974;11.330;2024-03-02T12:09:04;18.80;99.90
17815;DHT22;9031;50.974;11.330;2024-03-02T12:11:30;19.10;99.90
17815;DHT22;9031;50.974;11.330;2024-03-02T12:13:55;20.30;99.40
17815;DHT22;9031;50.974;11.330;2024-03-02T12:16:25;19.00;99.90
17815;DHT22;9031;50.974;11.330;2024-03-02T12:18:51;17.40;99.90
17815;DHT22;9031;50.974;11.330;2024-03-02T12:21:16;18.00;99.90
17815;DHT22;9031;50.974;11.330;2024-03-02T12:23:42;19.40;99.70
17815;DHT22;9031;50.974;11.330;2024-03-02T12:26:07;19.40;98.00
17815;DHT22;9031;50.974;11.330;2024-03-02T12:28:34;18.60;99.30
17815;DHT22;9031;50.974;11.330;2024-03-02T12:31:00;18.30;97.40
17815;DHT22;9031;50.974;11.330;2024-03-02T12:33:25;18.70;96.10
17815;DHT22;9031;50.974;11.330;2024-03-02T12:35:52;20.10;95.00
17815;DHT22;9031;50.974;11.330;2024-03-02T12:38:19;18.90;96.80
17815;DHT22;9031;50.974;11.330;2024-03-02T12:40:44;20.50;95.60
17815;DHT22;9031;50.974;11.330;2024-03-02T12:43:12;20.10;95.00
17815;DHT22;9031;50.974;11.330;2024-03-02T12:45:38;20.10;95.00
17815;DHT22;9031;50.974;11.330;2024-03-02T12:48:04;20.00;95.30
17815;DHT22;9031;50.974;11.330;2024-03-02T12:50:30;20.20;95.20
17815;DHT22;9031;50.974;11.330;2024-03-02T12:52:56;20.50;95.20
17815;DHT22;9031;50.974;11.330;2024-03-02T12:55:22;21.30;94.50
17815;DHT22;9031;50.974;11.330;2024-03-02T12:57:50;20.40;95.40
17815;DHT22;9031;50.974;11.330;2024-03-02T13:00:18;19.30;95.30
17815;DHT22;9031;50.974;11.330;2024-03-02T13:02:46;19.70;96.30
17815;DHT22;9031;50.974;11.330;2024-03-02T13:05:11;19.40;96.00
17815;DHT22;9031;50.974;11.330;2024-03-02T13:07:38;19.90;96.30
17815;DHT22;9031;50.974;11.330;2024-03-02T13:10:04;20.30;95.70
17815;DHT22;9031;50.974;11.330;2024-03-02T13:12:30;19.40;96.80
17815;DHT22;9031;50.974;11.330;2024-03-02T13:14:57;18.80;97.40
17815;DHT22;9031;50.974;11.330;2024-03-02T13:17:23;18.50;97.80
17815;DHT22;9031;50.974;11.330;2024-03-02T13:19:55;18.80;95.90
17815;DHT22;9031;50.974;11.330;2024-03-02T13:22:20;19.10;96.00
17815;DHT22;9031;50.974;11.330;2024-03-02T13:24:47;19.40;96.40
17815;DHT22;9031;50.974;11.330;2024-03-02T13:27:12;19.90;96.40
17815;DHT22;9031;50.974;11.330;2024-03-02T13:29:38;19.90;94.90
17815;DHT22;9031;50.974;11.330;2024-03-02T13:32:04;19.70;95.60
17815;DHT22;9031;50.974;11.330;2024-03-02T13:34:29;18.80;96.60
17815;DHT22;9031;50.974;11.330;2024-03-02T13:36:55;19.30;95.20
17815;DHT22;9031;50.974;11.330;2024-03-02T13:39:20;18.50;96.30
17815;DHT22;9031;50.974;11.330;2024-03-02T13:41:46;18.10;96.80
17815;DHT22;9031;50.974;11.330;2024-03-02T13:44:18;17.70;96.60
17815;DHT22;9031;50.974;11.330;2024-03-02T13:46:44;15.80;99.30
17815;DHT22;9031;50.974;11.330;2024-03-02T13:49:11;16.10;99.40
17815;DHT22;9031;50.974;11.330;2024-03-02T13:51:37;16.70;98.90
17815;DHT22;9031;50.974;11.330;2024-03-02T13:54:02;17.00;98.30
17815;DHT22;9031;50.974;11.330;2024-03-02T13:56:29;17.50;97.80
17815;DHT22;9031;50.974;11.330;2024-03-02T13:58:54;17.70;97.60
17815;DHT22;9031;50.974;11.330;2024-03-02T14:01:20;17.30;97.00
17815;DHT22;9031;50.974;11.330;2024-03-02T14:03:45;18.10;97.30
17815;DHT22;9031;50.974;11.330;2024-03-02T14:06:12;19.10;95.70
17815;DHT22;9031;50.974;11.330;2024-03-02T14:08:37;18.60;95.90
17815;DHT22;9031;50.974;11.330;2024-03-02T14:11:03;18.30;95.90
17815;DHT22;9031;50.974;11.330;2024-03-02T14:13:28;18.30;95.90
17815;DHT22;9031;50.974;11.330;2024-03-02T14:15:54;16.80;98.00
17815;DHT22;9031;50.974;11.330;2024-03-02T14:18:20;16.70;98.00
17815;DHT22;9031;50.974;11.330;2024-03-02T14:20:46;16.50;98.10
17815;DHT22;9031;50.974;11.330;2024-03-02T14:23:17;16.70;97.90
17815;DHT22;9031;50.974;11.330;2024-03-02T14:25:43;17.80;97.30
17815;DHT22;9031;50.974;11.330;2024-03-02T14:28:08;18.40;96.40
17815;DHT22;9031;50.974;11.330;2024-03-02T14:30:34;18.40;96.40
17815;DHT22;9031;50.974;11.330;2024-03-02T14:33:00;18.80;96.50
17815;DHT22;9031;50.974;11.330;2024-03-02T14:35:25;18.00;96.70
17815;DHT22;9031;50.974;11.330;2024-03-02T14:37:51;17.50;96.50
17815;DHT22;9031;50.974;11.330;2024-03-02T14:40:17;16.80;97.50
17815;DHT22;9031;50.974;11.330;2024-03-02T14:42:42;17.70;97.00
17815;DHT22;9031;50.974;11.330;2024-03-02T14:45:12;18.40;95.90
17815;DHT22;9031;50.974;11.330;2024-03-02T14:47:38;19.10;94.60
17815;DHT22;9031;50.974;11.330;2024-03-02T14:50:03;18.50;95.30
17815;DHT22;9031;50.974;11.330;2024-03-02T14:52:32;19.20;95.30
17815;DHT22;9031;50.974;11.330;2024-03-02T14:54:58;19.70;94.70
17815;DHT22;9031;50.974;11.330;2024-03-02T14:57:23;19.60;95.20
17815;DHT22;9031;50.974;11.330;2024-03-02T14:59:49;18.50;97.00
17815;DHT22;9031;50.974;11.330;2024-03-02T15:02:14;17.80;97.60
17815;DHT22;9031;50.974;11.330;2024-03-02T15:04:40;17.30;98.00
17815;DHT22;9031;50.974;11.330;2024-03-02T15:07:05;16.30;98.90
17815;DHT22;9031;50.974;11.330;2024-03-02T15:09:31;16.20;99.50
17815;DHT22;9031;50.974;11.330;2024-03-02T15:11:56;16.50;98.60
17815;DHT22;9031;50.974;11.330;2024-03-02T15:14:22;16.30;99.30
17815;DHT22;9031;50.974;11.330;2024-03-02T15:16:47;16.40;99.50
17815;DHT22;9031;50.974;11.330;2024-03-02T15:19:14;16.00;99.90
17815;DHT22;9031;50.974;11.330;2024-03-02T15:21:39;16.10;99.90
17815;DHT22;9031;50.974;11.330;2024-03-02T15:24:05;15.90;99.70
17815;DHT22;9031;50.974;11.330;2024-03-02T15:26:31;15.80;99.30
17815;DHT22;9031;50.974;11.330;2024-03-02T15:28:56;15.30;99.90
17815;DHT22;9031;50.974;11.330;2024-03-02T15:31:24;14.80;99.90
17815;DHT22;9031;50.974;11.330;2024-03-02T15:33:50;14.70;99.90
17815;DHT22;9031;50.974;11.330;2024-03-02T15:36:16;15.30;99.90
17815;DHT22;9031;50.974;11.330;2024-03-02T15:38:41;15.50;99.40
17815;DHT22;9031;50.974;11.330;2024-03-02T15:41:07;15.70;99.00
17815;DHT22;9031;50.974;11.330;2024-03-02T15:43:32;15.30;99.40